sensor_id;sensor_type;location;lat;lon;timestamp;pressure;altitude;pressure_sealevel;temperature;humidity
10606;BME280;5350;42.698;23.148;2022-12-07T00:00:00;93619.66;;;5.93;100.00
10606;BME280;5350;42.698;23.148;2022-12-07T00:02:26;93631.41;;;5.85;100.00
10606;BME280;5350;42.698;23.148;2022-12-07T00:04:53;93623.03;;;6.03;100.00
10606;BME280;5350;42.698;23.148;2022-12-07T00:07:20;93628.28;;;6.08;100.00
10606;BME280;5350;42.698;23.148;2022-12-07T00:09:47;93627.75;;;6.06;100.00
10606;BME280;5350;42.698;23.148;2022-12-07T00:12:13;93623.03;;;6.03;100.00
10606;BME280;5350;42.698;23.148;2022-12-07T00:14:42;93617.06;;;6.08;100.00
10606;BME280;5350;42.698;23.148;2022-12-07T00:17:08;93613.88;;;5.76;100.00
10606;BME280;5350;42.698;23.148;2022-12-07T00:19:35;93614.69;;;5.91;100.00
10606;BME280;5350;42.698;23.148;2022-12-07T00:22:02;93615.19;;;5.83;100.00
10606;BME280;5350;42.698;23.148;2022-12-07T00:24:28;93625.34;;;5.75;100.00
10606;BME280;5350;42.698;23.148;2022-12-07T00:26:55;93629.50;;;5.71;100.00
10606;BME280;5350;42.698;23.148;2022-12-07T00:29:22;93631.59;;;5.68;100.00
10606;BME280;5350;42.698;23.148;2022-12-07T00:31:50;93620.63;;;5.66;100.00
10606;BME280;5350;42.698;23.148;2022-12-07T00:34:18;93624.53;;;5.64;100.00
10606;BME280;5350;42.698;23.148;2022-12-07T00:36:46;93620.34;;;5.53;100.00
10606;BME280;5350;42.698;23.148;2022-12-07T00:39:12;93626.88;;;5.55;100.00
10606;BME280;5350;42.698;23.148;2022-12-07T00:41:39;93618.47;;;5.38;100.00
10606;BME280;5350;42.698;23.148;2022-12-07T00:44:06;93621.09;;;5.43;100.00
10606;BME280;5350;42.698;23.148;2022-12-07T00:46:33;93621.66;;;5.55;100.00
10606;BME280;5350;42.698;23.148;2022-12-07T00:49:01;93612.25;;;5.54;100.00
10606;BME280;5350;42.698;23.148;2022-12-07T00:51:28;93621.38;;;5.52;100.00
10606;BME280;5350;42.698;23.148;2022-12-07T00:53:55;93623.47;;;5.50;100.00
10606;BME280;5350;42.698;23.148;2022-12-07T00:56:23;93622.69;;;5.59;100.00
10606;BME280;5350;42.698;23.148;2022-12-07T00:58:52;93621.66;;;5.60;100.00
10606;BME280;5350;42.698;23.148;2022-12-07T01:01:19;93626.88;;;5.65;100.00
10606;BME280;5350;42.698;23.148;2022-12-07T01:03:45;93628.97;;;5.63;100.00
10606;BME280;5350;42.698;23.148;2022-12-07T01:06:15;93611.78;;;5.73;100.00
10606;BME280;5350;42.698;23.148;2022-12-07T01:08:43;93615.41;;;5.66;100.00
10606;BME280;5350;42.698;23.148;2022-12-07T01:11:12;93619.84;;;5.61;100.00
10606;BME280;5350;42.698;23.148;2022-12-07T01:13:40;93607.59;;;5.66;100.00
10606;BME280;5350;42.698;23.148;2022-12-07T01:16:07;93613.34;;;5.68;100.00
10606;BME280;5350;42.698;23.148;2022-12-07T01:18:35;93610.47;;;5.80;100.00
10606;BME280;5350;42.698;23.148;2022-12-07T01:21:04;93608.63;;;5.65;100.00
10606;BME280;5350;42.698;23.148;2022-12-07T01:23:33;93601.06;;;5.64;100.00
10606;BME280;5350;42.698;23.148;2022-12-07T01:26:04;93604.72;;;5.63;100.00
10606;BME280;5350;42.698;23.148;2022-12-07T01:28:31;93607.31;;;5.68;100.00
10606;BME280;5350;42.698;23.148;2022-12-07T01:30:59;93581.44;;;5.36;100.00
10606;BME280;5350;42.698;23.148;2022-12-07T01:33:27;93598.19;;;5.65;100.00
10606;BME280;5350;42.698;23.148;2022-12-07T01:35:55;93596.63;;;5.69;100.00
10606;BME280;5350;42.698;23.148;2022-12-07T01:38:26;93606.78;;;5.66;100.00
10606;BME280;5350;42.698;23.148;2022-12-07T01:40:55;93593.78;;;5.71;100.00
10606;BME280;5350;42.698;23.148;2022-12-07T01:43:24;93593.78;;;5.71;100.00
10606;BME280;5350;42.698;23.148;2022-12-07T01:45:52;93602.91;;;5.79;100.00
10606;BME280;5350;42.698;23.148;2022-12-07T01:48:20;93593.28;;;5.89;100.00
10606;BME280;5350;42.698;23.148;2022-12-07T01:50:51;93603.97;;;5.78;100.00
10606;BME280;5350;42.698;23.148;2022-12-07T01:53:20;93591.16;;;5.81;100.00
10606;BME280;5350;42.698;23.148;2022-12-07T01:55:50;93588.06;;;5.89;100.00
10606;BME280;5350;42.698;23.148;2022-12-07T01:58:20;93584.16;;;5.92;100.00
10606;BME280;5350;42.698;23.148;2022-12-07T02:00:47;93584.69;;;5.94;100.00
10606;BME280;5350;42.698;23.148;2022-12-07T02:03:17;93587.78;;;6.01;100.00
10606;BME280;5350;42.698;23.148;2022-12-07T02:05:46;93537.66;;;5.68;100.00
10606;BME280;5350;42.698;23.148;2022-12-07T02:08:14;93582.84;;;5.99;100.00
10606;BME280;5350;42.698;23.148;2022-12-07T02:10:41;93568.25;;;5.88;100.00
10606;BME280;5350;42.698;23.148;2022-12-07T02:13:12;93580.50;;;5.88;100.00
10606;BME280;5350;42.698;23.148;2022-12-07T02:15:51;93577.88;;;5.93;100.00
10606;BME280;5350;42.698;23.148;2022-12-07T02:18:27;93583.09;;;5.98;100.00
10606;BME280;5350;42.698;23.148;2022-12-07T02:21:00;93583.38;;;6.06;100.00
10606;BME280;5350;42.698;23.148;2022-12-07T02:23:53;93579.97;;;5.91;100.00
10606;BME280;5350;42.698;23.148;2022-12-07T02:29:40;93579.44;;;5.89;100.00
10606;BME280;5350;42.698;23.148;2022-12-07T02:32:13;93563.25;;;5.82;100.00
10606;BME280;5350;42.698;23.148;2022-12-07T02:34:47;93577.09;;;5.97;100.00
10606;BME280;5350;42.698;23.148;2022-12-07T02:37:25;93560.13;;;5.90;100.00
10606;BME280;5350;42.698;23.148;2022-12-07T02:39:57;93567.44;;;6.08;100.00
10606;BME280;5350;42.698;23.148;2022-12-07T02:42:30;93562.22;;;6.08;100.00
10606;BME280;5350;42.698;23.148;2022-12-07T02:45:00;93558.56;;;6.09;100.00
10606;BME280;5350;42.698;23.148;2022-12-07T02:47:29;93551.78;;;6.13;100.00
10606;BME280;5350;42.698;23.148;2022-12-07T02:49:58;93552.81;;;6.12;100.00
10606;BME280;5350;42.698;23.148;2022-12-07T02:52:25;93553.06;;;6.10;100.00
10606;BME280;5350;42.698;23.148;2022-12-07T02:54:51;93542.09;;;6.13;100.00
10606;BME280;5350;42.698;23.148;2022-12-07T02:57:44;93541.31;;;6.23;100.00
10606;BME280;5350;42.698;23.148;2022-12-07T03:00:18;93549.41;;;6.16;100.00
10606;BME280;5350;42.698;23.148;2022-12-07T03:02:52;93555.94;;;6.04;100.00
10606;BME280;5350;42.698;23.148;2022-12-07T03:05:32;93535.31;;;5.77;100.00
10606;BME280;5350;42.698;23.148;2022-12-07T03:08:10;93542.13;;;5.88;100.00
10606;BME280;5350;42.698;23.148;2022-12-07T03:10:45;93545.00;;;5.92;100.00
10606;BME280;5350;42.698;23.148;2022-12-07T03:13:19;93552.28;;;5.95;100.00
10606;BME280;5350;42.698;23.148;2022-12-07T03:15:53;93562.72;;;5.95;100.00
10606;BME280;5350;42.698;23.148;2022-12-07T03:18:25;93553.34;;;5.89;100.00
10606;BME280;5350;42.698;23.148;2022-12-07T03:20:57;93549.94;;;5.93;100.00
10606;BME280;5350;42.698;23.148;2022-12-07T03:23:25;93551.25;;;6.01;100.00
10606;BME280;5350;42.698;23.148;2022-12-07T03:25:56;93551.78;;;5.98;100.00
10606;BME280;5350;42.698;23.148;2022-12-07T03:28:33;93550.19;;;5.97;100.00
10606;BME280;5350;42.698;23.148;2022-12-07T03:31:05;93554.91;;;5.95;100.00
10606;BME280;5350;42.698;23.148;2022-12-07T03:33:39;93508.16;;;5.73;100.00
10606;BME280;5350;42.698;23.148;2022-12-07T03:36:09;93548.09;;;5.99;100.00
10606;BME280;5350;42.698;23.148;2022-12-07T03:38:40;93557.78;;;5.98;100.00
10606;BME280;5350;42.698;23.148;2022-12-07T03:41:11;93551.78;;;6.03;100.00
10606;BME280;5350;42.698;23.148;2022-12-07T03:43:39;93552.31;;;6.00;100.00
10606;BME280;5350;42.698;23.148;2022-12-07T03:46:14;93547.59;;;6.02;100.00
10606;BME280;5350;42.698;23.148;2022-12-07T03:48:49;93546.81;;;6.01;100.00
10606;BME280;5350;42.698;23.148;2022-12-07T03:51:21;93548.63;;;6.06;100.00
10606;BME280;5350;42.698;23.148;2022-12-07T03:53:54;93539.22;;;6.10;100.00
10606;BME280;5350;42.698;23.148;2022-12-07T03:56:26;93540.28;;;6.14;100.00
10606;BME280;5350;42.698;23.148;2022-12-07T03:58:55;93541.31;;;6.18;100.00
10606;BME280;5350;42.698;23.148;2022-12-07T04:01:24;93538.97;;;6.21;100.00
10606;BME280;5350;42.698;23.148;2022-12-07T04:03:51;93537.94;;;6.12;100.00
10606;BME280;5350;42.698;23.148;2022-12-07T04:06:17;93541.56;;;6.11;100.00
10606;BME280;5350;42.698;23.148;2022-12-07T04:08:44;93544.19;;;6.11;100.00
10606;BME280;5350;42.698;23.148;2022-12-07T04:11:11;93537.69;;;6.09;100.00
10606;BME280;5350;42.698;23.148;2022-12-07T04:13:38;93542.59;;;6.15;100.00
10606;BME280;5350;42.698;23.148;2022-12-07T04:16:18;93546.56;;;6.03;100.00
10606;BME280;5350;42.698;23.148;2022-12-07T04:18:46;93540.81;;;5.96;100.00
10606;BME280;5350;42.698;23.148;2022-12-07T04:21:13;93548.59;;;5.81;100.00
10606;BME280;5350;42.698;23.148;2022-12-07T04:23:39;93553.03;;;5.80;100.00
10606;BME280;5350;42.698;23.148;2022-12-07T04:26:07;93545.00;;;5.92;100.00
10606;BME280;5350;42.698;23.148;2022-12-07T04:28:33;93546.03;;;5.86;100.00
10606;BME280;5350;42.698;23.148;2022-12-07T04:31:00;93552.53;;;5.78;100.00
10606;BME280;5350;42.698;23.148;2022-12-07T04:33:27;93540.78;;;5.76;100.00
10606;BME280;5350;42.698;23.148;2022-12-07T04:35:55;93531.38;;;5.64;100.00
10606;BME280;5350;42.698;23.148;2022-12-07T04:38:21;93550.97;;;5.67;100.00
10606;BME280;5350;42.698;23.148;2022-12-07T04:40:48;93546.00;;;5.60;100.00
10606;BME280;5350;42.698;23.148;2022-12-07T04:43:15;93547.31;;;5.63;100.00
10606;BME280;5350;42.698;23.148;2022-12-07T04:45:46;93542.59;;;5.70;100.00
10606;BME280;5350;42.698;23.148;2022-12-07T04:48:13;93541.03;;;5.74;100.00
10606;BME280;5350;42.698;23.148;2022-12-07T04:50:39;93551.22;;;5.81;100.00
10606;BME280;5350;42.698;23.148;2022-12-07T04:53:07;93542.63;;;5.75;100.00
10606;BME280;5350;42.698;23.148;2022-12-07T04:55:34;93548.09;;;5.68;100.00
10606;BME280;5350;42.698;23.148;2022-12-07T04:58:01;93549.16;;;5.78;100.00
10606;BME280;5350;42.698;23.148;2022-12-07T05:00:28;93539.22;;;5.80;100.00
10606;BME280;5350;42.698;23.148;2022-12-07T05:02:54;93538.47;;;5.89;100.00
10606;BME280;5350;42.698;23.148;2022-12-07T05:05:21;93538.72;;;5.88;100.00
10606;BME280;5350;42.698;23.148;2022-12-07T05:07:48;93541.56;;;5.71;100.00
10606;BME280;5350;42.698;23.148;2022-12-07T05:10:16;93549.69;;;5.85;100.00
10606;BME280;5350;42.698;23.148;2022-12-07T05:12:43;93541.31;;;5.83;100.00
10606;BME280;5350;42.698;23.148;2022-12-07T05:15:10;93546.03;;;5.86;100.00
10606;BME280;5350;42.698;23.148;2022-12-07T05:17:37;93547.59;;;5.92;100.00
10606;BME280;5350;42.698;23.148;2022-12-07T05:20:05;93544.97;;;5.97;100.00
10606;BME280;5350;42.698;23.148;2022-12-07T05:22:32;93538.47;;;5.99;100.00
10606;BME280;5350;42.698;23.148;2022-12-07T05:24:59;93536.63;;;6.00;100.00
10606;BME280;5350;42.698;23.148;2022-12-07T05:27:27;93535.09;;;5.84;100.00
10606;BME280;5350;42.698;23.148;2022-12-07T05:29:54;93544.94;;;5.72;100.00
10606;BME280;5350;42.698;23.148;2022-12-07T05:32:20;93538.94;;;5.66;100.00
10606;BME280;5350;42.698;23.148;2022-12-07T05:34:47;93544.97;;;5.66;100.00
10606;BME280;5350;42.698;23.148;2022-12-07T05:37:14;93544.94;;;5.61;100.00
10606;BME280;5350;42.698;23.148;2022-12-07T05:39:40;93541.56;;;5.66;100.00
10606;BME280;5350;42.698;23.148;2022-12-07T05:42:08;93546.78;;;5.71;100.00
10606;BME280;5350;42.698;23.148;2022-12-07T05:44:45;93541.81;;;5.75;100.00
10606;BME280;5350;42.698;23.148;2022-12-07T05:47:13;93533.97;;;5.69;100.00
10606;BME280;5350;42.698;23.148;2022-12-07T05:49:41;93535.03;;;5.63;100.00
10606;BME280;5350;42.698;23.148;2022-12-07T05:52:07;93533.44;;;5.42;100.00
10606;BME280;5350;42.698;23.148;2022-12-07T05:54:34;93524.59;;;5.43;100.00
10606;BME280;5350;42.698;23.148;2022-12-07T05:57:01;93532.16;;;5.50;100.00
10606;BME280;5350;42.698;23.148;2022-12-07T05:59:27;93530.88;;;5.52;100.00
10606;BME280;5350;42.698;23.148;2022-12-07T06:01:57;93525.09;;;5.40;100.00
10606;BME280;5350;42.698;23.148;2022-12-07T06:04:26;93531.09;;;5.36;100.00
10606;BME280;5350;42.698;23.148;2022-12-07T06:06:53;93539.97;;;5.40;100.00
10606;BME280;5350;42.698;23.148;2022-12-07T06:09:21;93519.88;;;5.35;100.00
10606;BME280;5350;42.698;23.148;2022-12-07T06:11:48;93542.59;;;5.55;100.00
10606;BME280;5350;42.698;23.148;2022-12-07T06:14:32;93543.09;;;5.47;100.00
10606;BME280;5350;42.698;23.148;2022-12-07T06:17:00;93540.75;;;5.40;100.00
10606;BME280;5350;42.698;23.148;2022-12-07T06:19:27;93545.47;;;5.53;100.00
10606;BME280;5350;42.698;23.148;2022-12-07T06:21:54;93540.75;;;5.55;100.00
10606;BME280;5350;42.698;23.148;2022-12-07T06:24:21;93548.59;;;5.65;100.00
10606;BME280;5350;42.698;23.148;2022-12-07T06:26:48;93550.19;;;5.77;100.00
10606;BME280;5350;42.698;23.148;2022-12-07T06:29:14;93545.22;;;5.80;100.00
10606;BME280;5350;42.698;23.148;2022-12-07T06:31:41;93545.72;;;5.82;100.00
10606;BME280;5350;42.698;23.148;2022-12-07T06:34:11;93561.13;;;5.79;100.00
10606;BME280;5350;42.698;23.148;2022-12-07T06:36:39;93557.50;;;5.75;100.00
10606;BME280;5350;42.698;23.148;2022-12-07T06:39:06;93561.94;;;5.69;100.00
10606;BME280;5350;42.698;23.148;2022-12-07T06:41:35;93565.34;;;5.80;100.00
10606;BME280;5350;42.698;23.148;2022-12-07T06:44:01;93567.13;;;5.74;100.00
10606;BME280;5350;42.698;23.148;2022-12-07T06:46:28;93567.13;;;5.74;100.00
10606;BME280;5350;42.698;23.148;2022-12-07T06:48:55;93548.34;;;5.72;100.00
10606;BME280;5350;42.698;23.148;2022-12-07T06:51:24;93549.66;;;5.80;100.00
10606;BME280;5350;42.698;23.148;2022-12-07T06:53:51;93555.41;;;5.97;100.00
10606;BME280;5350;42.698;23.148;2022-12-07T06:56:17;93558.28;;;6.05;100.00
10606;BME280;5350;42.698;23.148;2022-12-07T06:58:44;93562.47;;;6.11;100.00
10606;BME280;5350;42.698;23.148;2022-12-07T07:01:12;93560.09;;;6.20;100.00
10606;BME280;5350;42.698;23.148;2022-12-07T07:03:40;93570.84;;;6.23;100.00
10606;BME280;5350;42.698;23.148;2022-12-07T07:06:08;93575.25;;;6.33;100.00
10606;BME280;5350;42.698;23.148;2022-12-07T07:08:36;93572.63;;;6.33;100.00
10606;BME280;5350;42.698;23.148;2022-12-07T07:11:04;93568.47;;;6.27;100.00
10606;BME280;5350;42.698;23.148;2022-12-07T07:13:30;93565.88;;;6.17;100.00
10606;BME280;5350;42.698;23.148;2022-12-07T07:15:57;93569.53;;;6.11;100.00
10606;BME280;5350;42.698;23.148;2022-12-07T07:18:25;93557.53;;;6.05;100.00
10606;BME280;5350;42.698;23.148;2022-12-07T07:20:51;93566.88;;;6.26;100.00
10606;BME280;5350;42.698;23.148;2022-12-07T07:23:18;93564.81;;;6.23;100.00
10606;BME280;5350;42.698;23.148;2022-12-07T07:25:47;93565.59;;;6.23;100.00
10606;BME280;5350;42.698;23.148;2022-12-07T07:28:15;93567.66;;;6.36;100.00
10606;BME280;5350;42.698;23.148;2022-12-07T07:30:42;93564.56;;;6.29;100.00
10606;BME280;5350;42.698;23.148;2022-12-07T07:33:09;93574.72;;;6.26;100.00
10606;BME280;5350;42.698;23.148;2022-12-07T07:35:37;93564.28;;;6.21;100.00
10606;BME280;5350;42.698;23.148;2022-12-07T07:38:04;93565.88;;;6.32;100.00
10606;BME280;5350;42.698;23.148;2022-12-07T07:40:31;93568.44;;;6.37;100.00
10606;BME280;5350;42.698;23.148;2022-12-07T07:42:59;93564.78;;;6.28;100.00
10606;BME280;5350;42.698;23.148;2022-12-07T07:45:26;93569.50;;;6.36;100.00
10606;BME280;5350;42.698;23.148;2022-12-07T07:47:53;93565.34;;;6.30;100.00
10606;BME280;5350;42.698;23.148;2022-12-07T07:50:20;93568.69;;;6.40;100.00
10606;BME280;5350;42.698;23.148;2022-12-07T07:52:47;93570.78;;;6.49;100.00
10606;BME280;5350;42.698;23.148;2022-12-07T07:55:15;93571.03;;;6.47;100.00
10606;BME280;5350;42.698;23.148;2022-12-07T07:57:41;93565.28;;;6.60;100.00
10606;BME280;5350;42.698;23.148;2022-12-07T08:00:12;93564.47;;;6.65;100.00
10606;BME280;5350;42.698;23.148;2022-12-07T08:02:39;93557.91;;;6.77;100.00
10606;BME280;5350;42.698;23.148;2022-12-07T08:05:07;93564.69;;;6.78;100.00
10606;BME280;5350;42.698;23.148;2022-12-07T08:07:34;93569.06;;;6.93;100.00
10606;BME280;5350;42.698;23.148;2022-12-07T08:10:01;93572.22;;;6.95;100.00
10606;BME280;5350;42.698;23.148;2022-12-07T08:12:27;93569.88;;;6.93;100.00
10606;BME280;5350;42.698;23.148;2022-12-07T08:14:54;93577.16;;;7.01;100.00
10606;BME280;5350;42.698;23.148;2022-12-07T08:17:22;93569.53;;;7.10;100.00
10606;BME280;5350;42.698;23.148;2022-12-07T08:19:49;93581.31;;;7.12;100.00
10606;BME280;5350;42.698;23.148;2022-12-07T08:22:15;93569.75;;;7.18;100.00
10606;BME280;5350;42.698;23.148;2022-12-07T08:24:42;93579.38;;;7.28;100.00
10606;BME280;5350;42.698;23.148;2022-12-07T08:27:09;93576.25;;;7.31;100.00
10606;BME280;5350;42.698;23.148;2022-12-07T08:29:36;93575.16;;;7.37;100.00
10606;BME280;5350;42.698;23.148;2022-12-07T08:32:03;93575.16;;;7.37;100.00
10606;BME280;5350;42.698;23.148;2022-12-07T08:34:31;93574.34;;;7.47;100.00
10606;BME280;5350;42.698;23.148;2022-12-07T08:36:58;93576.91;;;7.57;100.00
10606;BME280;5350;42.698;23.148;2022-12-07T08:39:24;93567.53;;;7.46;100.00
10606;BME280;5350;42.698;23.148;2022-12-07T08:41:51;93564.34;;;7.54;100.00
10606;BME280;5350;42.698;23.148;2022-12-07T08:44:18;93573.72;;;7.60;100.00
10606;BME280;5350;42.698;23.148;2022-12-07T08:46:46;93566.09;;;7.68;100.00
10606;BME280;5350;42.698;23.148;2022-12-07T08:49:17;93566.31;;;7.72;100.00
10606;BME280;5350;42.698;23.148;2022-12-07T08:51:47;93557.31;;;7.88;100.00
10606;BME280;5350;42.698;23.148;2022-12-07T08:54:16;93547.91;;;8.16;100.00
10606;BME280;5350;42.698;23.148;2022-12-07T08:56:44;93548.78;;;8.40;100.00
10606;BME280;5350;42.698;23.148;2022-12-07T08:59:14;93465.88;;;7.91;100.00
10606;BME280;5350;42.698;23.148;2022-12-07T09:01:43;93542.88;;;8.76;100.00
10606;BME280;5350;42.698;23.148;2022-12-07T09:04:10;93546.44;;;8.91;100.00
10606;BME280;5350;42.698;23.148;2022-12-07T09:06:37;93537.97;;;9.17;100.00
10606;BME280;5350;42.698;23.148;2022-12-07T09:09:06;93534.16;;;9.47;100.00
10606;BME280;5350;42.698;23.148;2022-12-07T09:11:33;93524.78;;;9.78;100.00
10606;BME280;5350;42.698;23.148;2022-12-07T09:13:59;93525.88;;;10.09;100.00
10606;BME280;5350;42.698;23.148;2022-12-07T09:16:26;93525.88;;;10.41;100.00
10606;BME280;5350;42.698;23.148;2022-12-07T09:18:53;93525.59;;;10.57;100.00
10606;BME280;5350;42.698;23.148;2022-12-07T09:21:20;93522.69;;;10.72;100.00
10606;BME280;5350;42.698;23.148;2022-12-07T09:23:47;93530.31;;;10.60;100.00
10606;BME280;5350;42.698;23.148;2022-12-07T09:26:15;93526.19;;;10.67;100.00
10606;BME280;5350;42.698;23.148;2022-12-07T09:28:42;93531.88;;;10.74;100.00
10606;BME280;5350;42.698;23.148;2022-12-07T09:31:09;93528.16;;;10.75;99.05
10606;BME280;5350;42.698;23.148;2022-12-07T09:33:35;93523.28;;;10.69;99.51
10606;BME280;5350;42.698;23.148;2022-12-07T09:36:03;93521.41;;;10.56;99.49
10606;BME280;5350;42.698;23.148;2022-12-07T09:38:30;93522.09;;;10.75;99.01
10606;BME280;5350;42.698;23.148;2022-12-07T09:41:03;93498.50;;;10.56;98.34
10606;BME280;5350;42.698;23.148;2022-12-07T09:43:35;93496.75;;;10.52;100.00
10606;BME280;5350;42.698;23.148;2022-12-07T09:46:03;93519.19;;;10.76;98.60
10606;BME280;5350;42.698;23.148;2022-12-07T09:48:32;93507.59;;;10.64;98.38
10606;BME280;5350;42.698;23.148;2022-12-07T09:51:03;93508.38;;;10.78;97.31
10606;BME280;5350;42.698;23.148;2022-12-07T09:53:39;93506.81;;;10.77;97.13
10606;BME280;5350;42.698;23.148;2022-12-07T09:56:06;93502.50;;;10.81;96.62
10606;BME280;5350;42.698;23.148;2022-12-07T09:58:34;93506.09;;;10.58;97.25
10606;BME280;5350;42.698;23.148;2022-12-07T10:01:10;93496.75;;;10.52;98.68
10606;BME280;5350;42.698;23.148;2022-12-07T10:03:40;93493.66;;;10.63;100.00
10606;BME280;5350;42.698;23.148;2022-12-07T10:06:11;93492.78;;;10.54;100.00
10606;BME280;5350;42.698;23.148;2022-12-07T10:08:39;93492.19;;;10.71;100.00
10606;BME280;5350;42.698;23.148;2022-12-07T10:11:07;93488.03;;;10.70;100.00
10606;BME280;5350;42.698;23.148;2022-12-07T10:13:38;93483.72;;;10.87;100.00
10606;BME280;5350;42.698;23.148;2022-12-07T10:16:06;93487.44;;;10.86;100.00
10606;BME280;5350;42.698;23.148;2022-12-07T10:18:48;93485.47;;;10.92;97.89
10606;BME280;5350;42.698;23.148;2022-12-07T10:21:16;93468.81;;;10.69;96.53
10606;BME280;5350;42.698;23.148;2022-12-07T10:23:59;93487.88;;;11.02;94.50
10606;BME280;5350;42.698;23.148;2022-12-07T10:26:30;93478.72;;;10.99;94.75
10606;BME280;5350;42.698;23.148;2022-12-07T10:29:01;93475.53;;;10.89;95.34
10606;BME280;5350;42.698;23.148;2022-12-07T10:31:28;93465.00;;;10.75;96.03
10606;BME280;5350;42.698;23.148;2022-12-07T10:33:56;93450.09;;;10.71;96.99
10606;BME280;5350;42.698;23.148;2022-12-07T10:36:25;93463.84;;;10.81;95.31
10606;BME280;5350;42.698;23.148;2022-12-07T10:38:59;93471.34;;;10.88;93.89
10606;BME280;5350;42.698;23.148;2022-12-07T10:41:26;93468.88;;;10.91;93.39
10606;BME280;5350;42.698;23.148;2022-12-07T10:43:54;93467.75;;;10.84;95.88
10606;BME280;5350;42.698;23.148;2022-12-07T10:46:53;93451.88;;;10.89;95.07
10606;BME280;5350;42.698;23.148;2022-12-07T10:52:47;93433.22;;;11.70;94.48
10606;BME280;5350;42.698;23.148;2022-12-07T10:55:22;93433.75;;;11.81;89.20
10606;BME280;5350;42.698;23.148;2022-12-07T10:58:05;93440.31;;;12.14;89.24
10606;BME280;5350;42.698;23.148;2022-12-07T11:00:39;93432.69;;;12.43;89.30
10606;BME280;5350;42.698;23.148;2022-12-07T11:03:33;93437.75;;;12.62;86.82
10606;BME280;5350;42.698;23.148;2022-12-07T11:06:13;93386.69;;;12.66;84.97
10606;BME280;5350;42.698;23.148;2022-12-07T11:08:51;93421.41;;;13.16;81.75
10606;BME280;5350;42.698;23.148;2022-12-07T11:11:28;93419.44;;;13.30;79.74
10606;BME280;5350;42.698;23.148;2022-12-07T11:14:03;93412.59;;;13.46;79.12
10606;BME280;5350;42.698;23.148;2022-12-07T11:16:42;93404.53;;;13.51;78.15
10606;BME280;5350;42.698;23.148;2022-12-07T11:19:24;93392.25;;;13.55;75.34
10606;BME280;5350;42.698;23.148;2022-12-07T11:21:57;93414.72;;;13.96;75.05
10606;BME280;5350;42.698;23.148;2022-12-07T11:24:30;93411.16;;;13.92;72.91
10606;BME280;5350;42.698;23.148;2022-12-07T11:27:09;93405.91;;;13.75;72.92
10606;BME280;5350;42.698;23.148;2022-12-07T11:32:49;93397.84;;;13.28;75.59
10606;BME280;5350;42.698;23.148;2022-12-07T11:35:24;93393.78;;;13.14;78.50
10606;BME280;5350;42.698;23.148;2022-12-07T11:38:01;93390.38;;;13.22;78.50
10606;BME280;5350;42.698;23.148;2022-12-07T11:40:35;93390.38;;;13.47;78.96
10606;BME280;5350;42.698;23.148;2022-12-07T11:43:06;93392.25;;;13.55;75.97
10606;BME280;5350;42.698;23.148;2022-12-07T11:45:41;93377.78;;;13.53;77.43
10606;BME280;5350;42.698;23.148;2022-12-07T11:48:12;93390.34;;;13.64;77.79
10606;BME280;5350;42.698;23.148;2022-12-07T11:50:44;93368.28;;;13.43;76.30
10606;BME280;5350;42.698;23.148;2022-12-07T11:53:17;93381.34;;;13.57;76.20
10606;BME280;5350;42.698;23.148;2022-12-07T11:55:49;93375.75;;;13.58;76.29
10606;BME280;5350;42.698;23.148;2022-12-07T12:01:15;93378.50;;;13.88;73.58
10606;BME280;5350;42.698;23.148;2022-12-07T12:03:47;93377.53;;;14.01;72.92
10606;BME280;5350;42.698;23.148;2022-12-07T12:06:16;93373.34;;;14.00;72.58
10606;BME280;5350;42.698;23.148;2022-12-07T12:08:46;93374.03;;;14.26;73.01
10606;BME280;5350;42.698;23.148;2022-12-07T12:11:25;93367.34;;;14.37;70.76
10606;BME280;5350;42.698;23.148;2022-12-07T12:14:17;93362.84;;;14.29;70.85
10606;BME280;5350;42.698;23.148;2022-12-07T12:17:20;93355.84;;;14.33;70.27
10606;BME280;5350;42.698;23.148;2022-12-07T12:19:59;93355.59;;;14.09;71.23
10606;BME280;5350;42.698;23.148;2022-12-07T12:22:34;93355.38;;;13.76;72.76
10606;BME280;5350;42.698;23.148;2022-12-07T12:25:05;93352.59;;;13.64;72.54
10606;BME280;5350;42.698;23.148;2022-12-07T12:27:35;93351.81;;;13.72;72.17
10606;BME280;5350;42.698;23.148;2022-12-07T12:30:05;93341.72;;;13.57;73.28
10606;BME280;5350;42.698;23.148;2022-12-07T12:32:38;93347.28;;;13.73;72.34
10606;BME280;5350;42.698;23.148;2022-12-07T12:35:28;93336.75;;;13.55;72.51
10606;BME280;5350;42.698;23.148;2022-12-07T12:38:22;93327.91;;;13.51;74.75
10606;BME280;5350;42.698;23.148;2022-12-07T12:40:52;93322.16;;;13.49;73.72
10606;BME280;5350;42.698;23.148;2022-12-07T12:43:51;93328.66;;;13.52;74.74
10606;BME280;5350;42.698;23.148;2022-12-07T12:46:49;93335.63;;;13.74;74.20
10606;BME280;5350;42.698;23.148;2022-12-07T12:52:58;93324.28;;;13.64;72.46
10606;BME280;5350;42.698;23.148;2022-12-07T12:55:48;93336.63;;;13.26;74.37
10606;BME280;5350;42.698;23.148;2022-12-07T12:58:30;93328.69;;;13.09;76.66
10606;BME280;5350;42.698;23.148;2022-12-07T13:03:58;93326.34;;;12.99;77.54
10606;BME280;5350;42.698;23.148;2022-12-07T13:06:35;93319.66;;;12.93;78.10
10606;BME280;5350;42.698;23.148;2022-12-07T13:09:03;93330.84;;;12.90;78.44
10606;BME280;5350;42.698;23.148;2022-12-07T13:11:33;93328.19;;;12.90;78.54
10606;BME280;5350;42.698;23.148;2022-12-07T13:14:41;93318.25;;;12.70;80.31
10606;BME280;5350;42.698;23.148;2022-12-07T13:17:09;93338.41;;;12.66;80.37
10606;BME280;5350;42.698;23.148;2022-12-07T13:19:57;93330.53;;;12.74;80.27
10606;BME280;5350;42.698;23.148;2022-12-07T13:22:52;93321.66;;;12.79;80.00
10606;BME280;5350;42.698;23.148;2022-12-07T13:26:00;93323.22;;;12.80;80.91
10606;BME280;5350;42.698;23.148;2022-12-07T13:28:35;93306.09;;;12.60;81.94
10606;BME280;5350;42.698;23.148;2022-12-07T13:31:18;93304.56;;;12.51;80.80
10606;BME280;5350;42.698;23.148;2022-12-07T13:33:46;93311.63;;;12.25;81.86
10606;BME280;5350;42.698;23.148;2022-12-07T13:36:20;93313.38;;;12.38;82.66